sensor_id;sensor_type;location;lat;lon;timestamp;temperature;humidity
3788;DHT22;1909;53.046;8.276;2023-03-17T00:00:41;6.60;99.90
3788;DHT22;1909;53.046;8.276;2023-03-17T00:03:09;6.60;99.90
3788;DHT22;1909;53.046;8.276;2023-03-17T00:05:36;6.50;99.90
3788;DHT22;1909;53.046;8.276;2023-03-17T00:08:08;6.50;99.90
3788;DHT22;1909;53.046;8.276;2023-03-17T00:10:35;6.50;99.90
3788;DHT22;1909;53.046;8.276;2023-03-17T00:13:02;6.50;99.90
3788;DHT22;1909;53.046;8.276;2023-03-17T00:15:29;6.50;99.90
3788;DHT22;1909;53.046;8.276;2023-03-17T00:17:56;6.50;99.90
3788;DHT22;1909;53.046;8.276;2023-03-17T00:20:23;6.50;99.90
3788;DHT22;1909;53.046;8.276;2023-03-17T00:22:50;6.50;99.90
3788;DHT22;1909;53.046;8.276;2023-03-17T00:25:20;6.50;99.90
3788;DHT22;1909;53.046;8.276;2023-03-17T00:27:47;6.50;99.90
3788;DHT22;1909;53.046;8.276;2023-03-17T00:30:14;6.50;99.90
3788;DHT22;1909;53.046;8.276;2023-03-17T00:32:42;6.50;99.90
3788;DHT22;1909;53.046;8.276;2023-03-17T00:35:16;6.50;99.90
3788;DHT22;1909;53.046;8.276;2023-03-17T00:37:43;6.50;99.90
3788;DHT22;1909;53.046;8.276;2023-03-17T00:40:14;6.50;99.90
3788;DHT22;1909;53.046;8.276;2023-03-17T00:42:42;6.40;99.90
3788;DHT22;1909;53.046;8.276;2023-03-17T00:45:09;6.40;99.90
3788;DHT22;1909;53.046;8.276;2023-03-17T00:47:35;6.40;99.90
3788;DHT22;1909;53.046;8.276;2023-03-17T00:50:03;6.40;99.90
3788;DHT22;1909;53.046;8.276;2023-03-17T00:52:31;6.40;99.90
3788;DHT22;1909;53.046;8.276;2023-03-17T00:54:57;6.30;99.90
3788;DHT22;1909;53.046;8.276;2023-03-17T00:57:24;6.40;99.90
3788;DHT22;1909;53.046;8.276;2023-03-17T00:59:52;6.40;99.90
3788;DHT22;1909;53.046;8.276;2023-03-17T01:02:18;6.40;99.90
3788;DHT22;1909;53.046;8.276;2023-03-17T01:04:45;6.30;99.90
3788;DHT22;1909;53.046;8.276;2023-03-17T01:09:38;6.30;99.90
3788;DHT22;1909;53.046;8.276;2023-03-17T01:12:07;6.30;99.90
3788;DHT22;1909;53.046;8.276;2023-03-17T01:14:35;6.30;99.90
3788;DHT22;1909;53.046;8.276;2023-03-17T01:17:04;6.30;99.90
3788;DHT22;1909;53.046;8.276;2023-03-17T01:19:31;6.30;99.90
3788;DHT22;1909;53.046;8.276;2023-03-17T01:21:58;6.30;99.90
3788;DHT22;1909;53.046;8.276;2023-03-17T01:24:24;6.30;99.90
3788;DHT22;1909;53.046;8.276;2023-03-17T01:29:19;6.30;99.90
3788;DHT22;1909;53.046;8.276;2023-03-17T01:31:46;6.30;99.90
3788;DHT22;1909;53.046;8.276;2023-03-17T01:34:14;6.30;99.90
3788;DHT22;1909;53.046;8.276;2023-03-17T01:36:40;6.30;99.90
3788;DHT22;1909;53.046;8.276;2023-03-17T01:39:07;6.30;99.90
3788;DHT22;1909;53.046;8.276;2023-03-17T01:41:34;6.20;99.90
3788;DHT22;1909;53.046;8.276;2023-03-17T01:44:00;6.20;99.90
3788;DHT22;1909;53.046;8.276;2023-03-17T01:46:27;6.20;99.90
3788;DHT22;1909;53.046;8.276;2023-03-17T01:48:59;6.20;99.90
3788;DHT22;1909;53.046;8.276;2023-03-17T01:51:31;6.20;99.90
3788;DHT22;1909;53.046;8.276;2023-03-17T01:53:59;6.20;99.90
3788;DHT22;1909;53.046;8.276;2023-03-17T01:56:26;6.20;99.90
3788;DHT22;1909;53.046;8.276;2023-03-17T01:58:54;6.20;99.90
3788;DHT22;1909;53.046;8.276;2023-03-17T02:01:24;6.20;99.90
3788;DHT22;1909;53.046;8.276;2023-03-17T02:03:52;6.20;99.90
3788;DHT22;1909;53.046;8.276;2023-03-17T02:08:47;6.20;99.90
3788;DHT22;1909;53.046;8.276;2023-03-17T02:11:14;6.20;99.90
3788;DHT22;1909;53.046;8.276;2023-03-17T02:13:41;6.10;99.90
3788;DHT22;1909;53.046;8.276;2023-03-17T02:16:12;6.10;99.90
3788;DHT22;1909;53.046;8.276;2023-03-17T02:18:38;6.10;99.90
3788;DHT22;1909;53.046;8.276;2023-03-17T02:23:48;6.20;99.90
3788;DHT22;1909;53.046;8.276;2023-03-17T02:26:14;6.20;99.90
3788;DHT22;1909;53.046;8.276;2023-03-17T02:28:42;6.10;99.90
3788;DHT22;1909;53.046;8.276;2023-03-17T02:31:10;6.10;99.90
3788;DHT22;1909;53.046;8.276;2023-03-17T02:33:37;6.10;99.90
3788;DHT22;1909;53.046;8.276;2023-03-17T02:36:03;6.10;99.90
3788;DHT22;1909;53.046;8.276;2023-03-17T02:38:30;6.10;99.90
3788;DHT22;1909;53.046;8.276;2023-03-17T02:40:58;6.10;99.90
3788;DHT22;1909;53.046;8.276;2023-03-17T02:43:24;6.10;99.90
3788;DHT22;1909;53.046;8.276;2023-03-17T02:45:51;6.10;99.90
3788;DHT22;1909;53.046;8.276;2023-03-17T02:48:18;6.00;99.90
3788;DHT22;1909;53.046;8.276;2023-03-17T02:50:44;6.00;99.90
3788;DHT22;1909;53.046;8.276;2023-03-17T02:53:11;6.10;99.90
3788;DHT22;1909;53.046;8.276;2023-03-17T02:55:38;6.10;99.90
3788;DHT22;1909;53.046;8.276;2023-03-17T02:58:06;6.10;99.90
3788;DHT22;1909;53.046;8.276;2023-03-17T03:00:33;6.00;99.90
3788;DHT22;1909;53.046;8.276;2023-03-17T03:03:00;6.00;99.90
3788;DHT22;1909;53.046;8.276;2023-03-17T03:05:26;6.00;99.90
3788;DHT22;1909;53.046;8.276;2023-03-17T03:07:54;6.00;99.90
3788;DHT22;1909;53.046;8.276;2023-03-17T03:10:20;6.00;99.90
3788;DHT22;1909;53.046;8.276;2023-03-17T03:12:47;6.00;99.90
3788;DHT22;1909;53.046;8.276;2023-03-17T03:17:42;6.00;99.90
3788;DHT22;1909;53.046;8.276;2023-03-17T03:20:09;6.00;99.90
3788;DHT22;1909;53.046;8.276;2023-03-17T03:22:37;6.00;99.90
3788;DHT22;1909;53.046;8.276;2023-03-17T03:25:04;6.00;99.90
3788;DHT22;1909;53.046;8.276;2023-03-17T03:27:31;6.00;99.90
3788;DHT22;1909;53.046;8.276;2023-03-17T03:29:58;5.90;99.90
3788;DHT22;1909;53.046;8.276;2023-03-17T03:32:25;5.90;99.90
3788;DHT22;1909;53.046;8.276;2023-03-17T03:34:53;6.00;99.90
3788;DHT22;1909;53.046;8.276;2023-03-17T03:37:20;5.90;99.90
3788;DHT22;1909;53.046;8.276;2023-03-17T03:39:46;5.90;99.90
3788;DHT22;1909;53.046;8.276;2023-03-17T03:44:40;5.90;99.90
3788;DHT22;1909;53.046;8.276;2023-03-17T03:47:07;5.90;99.90
3788;DHT22;1909;53.046;8.276;2023-03-17T03:49:33;5.80;99.90
3788;DHT22;1909;53.046;8.276;2023-03-17T03:52:01;5.80;99.90
3788;DHT22;1909;53.046;8.276;2023-03-17T03:54:28;5.80;99.90
3788;DHT22;1909;53.046;8.276;2023-03-17T03:56:54;5.80;99.90
3788;DHT22;1909;53.046;8.276;2023-03-17T03:59:21;5.80;99.90
3788;DHT22;1909;53.046;8.276;2023-03-17T04:01:48;5.80;99.90
3788;DHT22;1909;53.046;8.276;2023-03-17T04:04:14;5.80;99.90
3788;DHT22;1909;53.046;8.276;2023-03-17T04:09:09;5.80;99.90
3788;DHT22;1909;53.046;8.276;2023-03-17T04:11:36;5.80;99.90
3788;DHT22;1909;53.046;8.276;2023-03-17T04:14:03;5.80;99.90
3788;DHT22;1909;53.046;8.276;2023-03-17T04:18:57;5.70;99.90
3788;DHT22;1909;53.046;8.276;2023-03-17T04:21:24;5.80;99.90
3788;DHT22;1909;53.046;8.276;2023-03-17T04:23:50;5.70;99.90
3788;DHT22;1909;53.046;8.276;2023-03-17T04:26:18;5.80;99.90
3788;DHT22;1909;53.046;8.276;2023-03-17T04:28:47;5.70;99.90
3788;DHT22;1909;53.046;8.276;2023-03-17T04:31:14;5.70;99.90
3788;DHT22;1909;53.046;8.276;2023-03-17T04:36:08;5.70;99.90
3788;DHT22;1909;53.046;8.276;2023-03-17T04:38:38;5.70;99.90
3788;DHT22;1909;53.046;8.276;2023-03-17T04:41:05;5.70;99.90
3788;DHT22;1909;53.046;8.276;2023-03-17T04:43:33;5.70;99.90
3788;DHT22;1909;53.046;8.276;2023-03-17T04:45:59;5.60;99.90
3788;DHT22;1909;53.046;8.276;2023-03-17T04:48:26;5.60;99.90
3788;DHT22;1909;53.046;8.276;2023-03-17T04:50:52;5.60;99.90
3788;DHT22;1909;53.046;8.276;2023-03-17T04:53:19;5.60;99.90
3788;DHT22;1909;53.046;8.276;2023-03-17T04:55:46;5.60;99.90
3788;DHT22;1909;53.046;8.276;2023-03-17T04:58:13;5.60;99.90
3788;DHT22;1909;53.046;8.276;2023-03-17T05:03:08;5.60;99.90
3788;DHT22;1909;53.046;8.276;2023-03-17T05:05:34;5.50;99.90
3788;DHT22;1909;53.046;8.276;2023-03-17T05:08:01;5.60;99.90
3788;DHT22;1909;53.046;8.276;2023-03-17T05:10:27;5.60;99.90
3788;DHT22;1909;53.046;8.276;2023-03-17T05:12:54;5.50;99.90
3788;DHT22;1909;53.046;8.276;2023-03-17T05:15:21;5.60;99.90
3788;DHT22;1909;53.046;8.276;2023-03-17T05:17:47;5.60;99.90
3788;DHT22;1909;53.046;8.276;2023-03-17T05:20:15;5.50;99.90
3788;DHT22;1909;53.046;8.276;2023-03-17T05:22:42;5.60;99.90
3788;DHT22;1909;53.046;8.276;2023-03-17T05:27:35;5.50;99.90
3788;DHT22;1909;53.046;8.276;2023-03-17T05:30:02;5.40;99.90
3788;DHT22;1909;53.046;8.276;2023-03-17T05:32:29;5.50;99.90
3788;DHT22;1909;53.046;8.276;2023-03-17T05:34:56;5.50;99.90
3788;DHT22;1909;53.046;8.276;2023-03-17T05:37:24;5.40;99.90
3788;DHT22;1909;53.046;8.276;2023-03-17T05:39:50;5.40;99.90
3788;DHT22;1909;53.046;8.276;2023-03-17T05:42:18;5.50;99.90
3788;DHT22;1909;53.046;8.276;2023-03-17T05:44:44;5.40;99.90
3788;DHT22;1909;53.046;8.276;2023-03-17T05:47:11;5.50;99.90
3788;DHT22;1909;53.046;8.276;2023-03-17T05:49:37;5.50;99.90
3788;DHT22;1909;53.046;8.276;2023-03-17T05:52:04;5.50;99.90
3788;DHT22;1909;53.046;8.276;2023-03-17T05:54:32;5.40;99.90
3788;DHT22;1909;53.046;8.276;2023-03-17T05:56:58;5.40;99.90
3788;DHT22;1909;53.046;8.276;2023-03-17T05:59:25;5.40;99.90
3788;DHT22;1909;53.046;8.276;2023-03-17T06:01:52;5.40;99.90
3788;DHT22;1909;53.046;8.276;2023-03-17T06:04:18;5.40;99.90
3788;DHT22;1909;53.046;8.276;2023-03-17T06:06:45;5.40;99.90
3788;DHT22;1909;53.046;8.276;2023-03-17T06:09:11;5.40;99.90
3788;DHT22;1909;53.046;8.276;2023-03-17T06:11:40;5.40;99.90
3788;DHT22;1909;53.046;8.276;2023-03-17T06:14:08;5.40;99.90
3788;DHT22;1909;53.046;8.276;2023-03-17T06:16:34;5.40;99.90
3788;DHT22;1909;53.046;8.276;2023-03-17T06:19:01;5.40;99.90
3788;DHT22;1909;53.046;8.276;2023-03-17T06:21:27;5.40;99.90
3788;DHT22;1909;53.046;8.276;2023-03-17T06:23:54;5.40;99.90
3788;DHT22;1909;53.046;8.276;2023-03-17T06:26:20;5.40;99.90
3788;DHT22;1909;53.046;8.276;2023-03-17T06:28:48;5.40;99.90
3788;DHT22;1909;53.046;8.276;2023-03-17T06:31:15;5.40;99.90
3788;DHT22;1909;53.046;8.276;2023-03-17T06:33:42;5.40;99.90
3788;DHT22;1909;53.046;8.276;2023-03-17T06:36:08;5.40;99.90
3788;DHT22;1909;53.046;8.276;2023-03-17T06:38:35;5.40;99.90
3788;DHT22;1909;53.046;8.276;2023-03-17T06:41:01;5.50;99.90
3788;DHT22;1909;53.046;8.276;2023-03-17T06:43:28;5.50;99.90
3788;DHT22;1909;53.046;8.276;2023-03-17T06:45:57;5.50;99.90
3788;DHT22;1909;53.046;8.276;2023-03-17T06:48:24;5.50;99.90
3788;DHT22;1909;53.046;8.276;2023-03-17T06:50:50;5.50;99.90
3788;DHT22;1909;53.046;8.276;2023-03-17T06:53:17;5.50;99.90
3788;DHT22;1909;53.046;8.276;2023-03-17T06:55:43;5.60;99.90
3788;DHT22;1909;53.046;8.276;2023-03-17T06:58:10;5.60;99.90
3788;DHT22;1909;53.046;8.276;2023-03-17T07:00:37;5.60;99.90
3788;DHT22;1909;53.046;8.276;2023-03-17T07:03:05;5.60;99.90
3788;DHT22;1909;53.046;8.276;2023-03-17T07:05:32;5.60;99.90
3788;DHT22;1909;53.046;8.276;2023-03-17T07:07:58;5.60;99.90
3788;DHT22;1909;53.046;8.276;2023-03-17T07:10:25;5.70;99.90
3788;DHT22;1909;53.046;8.276;2023-03-17T07:12:51;5.70;99.90
3788;DHT22;1909;53.046;8.276;2023-03-17T07:15:18;5.70;99.90
3788;DHT22;1909;53.046;8.276;2023-03-17T07:17:45;5.80;99.90
3788;DHT22;1909;53.046;8.276;2023-03-17T07:20:13;5.90;99.90
3788;DHT22;1909;53.046;8.276;2023-03-17T07:22:40;5.90;99.90
3788;DHT22;1909;53.046;8.276;2023-03-17T07:25:07;5.90;99.90
3788;DHT22;1909;53.046;8.276;2023-03-17T07:27:34;5.90;99.90
3788;DHT22;1909;53.046;8.276;2023-03-17T07:30:00;6.00;99.90
3788;DHT22;1909;53.046;8.276;2023-03-17T07:32:29;6.00;99.90
3788;DHT22;1909;53.046;8.276;2023-03-17T07:34:56;6.10;99.90
3788;DHT22;1909;53.046;8.276;2023-03-17T07:37:24;6.20;99.90
3788;DHT22;1909;53.046;8.276;2023-03-17T07:39:50;6.20;99.90
3788;DHT22;1909;53.046;8.276;2023-03-17T07:42:17;6.20;99.90
3788;DHT22;1909;53.046;8.276;2023-03-17T07:44:44;6.20;99.90
3788;DHT22;1909;53.046;8.276;2023-03-17T07:47:10;6.30;99.90
3788;DHT22;1909;53.046;8.276;2023-03-17T07:49:37;6.30;99.90
3788;DHT22;1909;53.046;8.276;2023-03-17T07:52:04;6.50;99.90
3788;DHT22;1909;53.046;8.276;2023-03-17T07:54:32;6.50;99.90
3788;DHT22;1909;53.046;8.276;2023-03-17T07:56:59;6.50;99.90
3788;DHT22;1909;53.046;8.276;2023-03-17T07:59:26;6.60;99.90
3788;DHT22;1909;53.046;8.276;2023-03-17T08:01:53;6.50;99.90
3788;DHT22;1909;53.046;8.276;2023-03-17T08:04:19;6.70;99.90
3788;DHT22;1909;53.046;8.276;2023-03-17T08:06:46;6.80;99.90
3788;DHT22;1909;53.046;8.276;2023-03-17T08:09:13;6.80;99.90
3788;DHT22;1909;53.046;8.276;2023-03-17T08:11:41;6.80;99.90
3788;DHT22;1909;53.046;8.276;2023-03-17T08:14:08;6.80;99.90
3788;DHT22;1909;53.046;8.276;2023-03-17T08:16:35;6.90;99.90
3788;DHT22;1909;53.046;8.276;2023-03-17T08:19:02;7.00;99.90
3788;DHT22;1909;53.046;8.276;2023-03-17T08:21:30;7.10;99.90
3788;DHT22;1909;53.046;8.276;2023-03-17T08:23:57;7.00;99.90
3788;DHT22;1909;53.046;8.276;2023-03-17T08:26:23;7.10;99.90
3788;DHT22;1909;53.046;8.276;2023-03-17T08:28:52;7.20;99.90
3788;DHT22;1909;53.046;8.276;2023-03-17T08:31:19;7.40;99.90
3788;DHT22;1909;53.046;8.276;2023-03-17T08:33:47;7.70;99.90
3788;DHT22;1909;53.046;8.276;2023-03-17T08:36:15;7.70;99.90
3788;DHT22;1909;53.046;8.276;2023-03-17T08:38:42;7.80;99.90
3788;DHT22;1909;53.046;8.276;2023-03-17T08:41:10;7.90;99.90
3788;DHT22;1909;53.046;8.276;2023-03-17T08:43:37;8.00;99.90
3788;DHT22;1909;53.046;8.276;2023-03-17T08:46:07;8.10;99.90
3788;DHT22;1909;53.046;8.276;2023-03-17T08:48:34;8.00;99.90
3788;DHT22;1909;53.046;8.276;2023-03-17T08:51:01;8.10;99.90
3788;DHT22;1909;53.046;8.276;2023-03-17T08:53:28;8.20;99.90
3788;DHT22;1909;53.046;8.276;2023-03-17T08:55:55;8.30;99.90
3788;DHT22;1909;53.046;8.276;2023-03-17T08:58:22;8.40;99.90
3788;DHT22;1909;53.046;8.276;2023-03-17T09:00:48;8.40;99.90
3788;DHT22;1909;53.046;8.276;2023-03-17T09:03:16;8.60;99.90
3788;DHT22;1909;53.046;8.276;2023-03-17T09:05:43;8.60;99.90
3788;DHT22;1909;53.046;8.276;2023-03-17T09:08:10;8.70;99.90
3788;DHT22;1909;53.046;8.276;2023-03-17T09:10:37;8.60;99.90
3788;DHT22;1909;53.046;8.276;2023-03-17T09:13:03;8.70;99.90
3788;DHT22;1909;53.046;8.276;2023-03-17T09:15:30;8.90;99.90
3788;DHT22;1909;53.046;8.276;2023-03-17T09:17:57;8.80;99.90
3788;DHT22;1909;53.046;8.276;2023-03-17T09:20:25;9.00;99.90
3788;DHT22;1909;53.046;8.276;2023-03-17T09:22:52;9.20;99.90
3788;DHT22;1909;53.046;8.276;2023-03-17T09:25:18;9.20;99.90
3788;DHT22;1909;53.046;8.276;2023-03-17T09:27:45;9.20;99.90
3788;DHT22;1909;53.046;8.276;2023-03-17T09:30:12;9.20;99.90
3788;DHT22;1909;53.046;8.276;2023-03-17T09:32:39;9.30;99.90
3788;DHT22;1909;53.046;8.276;2023-03-17T09:35:05;9.30;99.90
3788;DHT22;1909;53.046;8.276;2023-03-17T09:37:33;9.50;99.90
3788;DHT22;1909;53.046;8.276;2023-03-17T09:40:00;9.60;99.90
3788;DHT22;1909;53.046;8.276;2023-03-17T09:42:34;9.70;99.90
3788;DHT22;1909;53.046;8.276;2023-03-17T09:45:10;9.80;99.90
3788;DHT22;1909;53.046;8.276;2023-03-17T09:47:50;9.80;99.90
3788;DHT22;1909;53.046;8.276;2023-03-17T09:50:21;9.70;99.90
3788;DHT22;1909;53.046;8.276;2023-03-17T09:52:50;9.80;99.90
3788;DHT22;1909;53.046;8.276;2023-03-17T09:55:21;10.00;99.90
3788;DHT22;1909;53.046;8.276;2023-03-17T09:57:49;10.30;99.90
3788;DHT22;1909;53.046;8.276;2023-03-17T10:00:17;10.10;99.90
3788;DHT22;1909;53.046;8.276;2023-03-17T10:02:45;10.30;99.90
3788;DHT22;1909;53.046;8.276;2023-03-17T10:05:16;10.20;99.90
3788;DHT22;1909;53.046;8.276;2023-03-17T10:07:44;10.20;99.90
3788;DHT22;1909;53.046;8.276;2023-03-17T10:10:15;10.40;99.90
3788;DHT22;1909;53.046;8.276;2023-03-17T10:12:46;10.50;99.90
3788;DHT22;1909;53.046;8.276;2023-03-17T10:15:15;10.70;99.90
3788;DHT22;1909;53.046;8.276;2023-03-17T10:17:43;10.70;99.90
3788;DHT22;1909;53.046;8.276;2023-03-17T10:20:11;10.70;99.90
3788;DHT22;1909;53.046;8.276;2023-03-17T10:22:40;10.80;99.90
3788;DHT22;1909;53.046;8.276;2023-03-17T10:25:12;10.80;99.90
3788;DHT22;1909;53.046;8.276;2023-03-17T10:27:40;10.70;99.90
3788;DHT22;1909;53.046;8.276;2023-03-17T10:30:10;10.90;99.90
3788;DHT22;1909;53.046;8.276;2023-03-17T10:32:39;10.70;99.90
3788;DHT22;1909;53.046;8.276;2023-03-17T10:35:06;10.90;99.90
3788;DHT22;1909;53.046;8.276;2023-03-17T10:37:34;11.10;99.90
3788;DHT22;1909;53.046;8.276;2023-03-17T10:40:02;10.90;99.90
3788;DHT22;1909;53.046;8.276;2023-03-17T10:42:30;10.90;99.90
3788;DHT22;1909;53.046;8.276;2023-03-17T10:45:00;10.70;99.90
3788;DHT22;1909;53.046;8.276;2023-03-17T10:47:31;10.80;99.90
3788;DHT22;1909;53.046;8.276;2023-03-17T10:49:58;11.00;99.90
3788;DHT22;1909;53.046;8.276;2023-03-17T10:52:28;11.10;99.90
3788;DHT22;1909;53.046;8.276;2023-03-17T10:54:55;11.20;99.90
3788;DHT22;1909;53.046;8.276;2023-03-17T10:57:26;12.00;99.90
3788;DHT22;1909;53.046;8.276;2023-03-17T10:59:53;11.70;99.90
3788;DHT22;1909;53.046;8.276;2023-03-17T11:02:24;11.50;99.90
3788;DHT22;1909;53.046;8.276;2023-03-17T11:04:53;11.60;99.90
3788;DHT22;1909;53.046;8.276;2023-03-17T11:07:20;11.50;99.90
3788;DHT22;1909;53.046;8.276;2023-03-17T11:09:55;11.80;99.90
3788;DHT22;1909;53.046;8.276;2023-03-17T11:12:23;11.70;99.90
3788;DHT22;1909;53.046;8.276;2023-03-17T11:14:53;11.50;99.90
3788;DHT22;1909;53.046;8.276;2023-03-17T11:17:26;11.90;99.90
3788;DHT22;1909;53.046;8.276;2023-03-17T11:19:56;11.90;99.90
3788;DHT22;1909;53.046;8.276;2023-03-17T11:22:25;11.90;99.90
3788;DHT22;1909;53.046;8.276;2023-03-17T11:24:57;12.00;99.90
3788;DHT22;1909;53.046;8.276;2023-03-17T11:27:27;12.10;99.90
3788;DHT22;1909;53.046;8.276;2023-03-17T11:30:10;12.30;99.90
3788;DHT22;1909;53.046;8.276;2023-03-17T11:32:41;12.40;99.90
3788;DHT22;1909;53.046;8.276;2023-03-17T11:35:18;12.40;99.90
3788;DHT22;1909;53.046;8.276;2023-03-17T11:38:03;12.30;99.90
3788;DHT22;1909;53.046;8.276;2023-03-17T11:40:34;12.50;99.90
3788;DHT22;1909;53.046;8.276;2023-03-17T11:43:06;12.40;99.90
3788;DHT22;1909;53.046;8.276;2023-03-17T11:45:37;12.30;99.90
3788;DHT22;1909;53.046;8.276;2023-03-17T11:48:11;12.40;99.90
3788;DHT22;1909;53.046;8.276;2023-03-17T11:50:43;12.30;99.90
3788;DHT22;1909;53.046;8.276;2023-03-17T11:53:16;12.40;99.90
3788;DHT22;1909;53.046;8.276;2023-03-17T11:55:44;12.50;99.90
3788;DHT22;1909;53.046;8.276;2023-03-17T11:58:12;12.50;99.90
3788;DHT22;1909;53.046;8.276;2023-03-17T12:00:43;12.70;99.90
3788;DHT22;1909;53.046;8.276;2023-03-17T12:03:13;12.70;99.90
3788;DHT22;1909;53.046;8.276;2023-03-17T12:05:42;12.70;99.90
3788;DHT22;1909;53.046;8.276;2023-03-17T12:08:11;12.40;99.90
3788;DHT22;1909;53.046;8.276;2023-03-17T12:10:43;12.60;99.90
3788;DHT22;1909;53.046;8.276;2023-03-17T12:13:11;12.70;99.90
3788;DHT22;1909;53.046;8.276;2023-03-17T12:15:42;12.80;99.90
3788;DHT22;1909;53.046;8.276;2023-03-17T12:18:11;12.50;99.90
3788;DHT22;1909;53.046;8.276;2023-03-17T12:20:43;12.70;99.90
3788;DHT22;1909;53.046;8.276;2023-03-17T12:23:13;12.80;99.90
3788;DHT22;1909;53.046;8.276;2023-03-17T12:25:44;12.80;99.90
3788;DHT22;1909;53.046;8.276;2023-03-17T12:28:15;12.70;99.90
3788;DHT22;1909;53.046;8.276;2023-03-17T12:30:44;12.50;99.90
3788;DHT22;1909;53.046;8.276;2023-03-17T12:33:15;12.80;99.90
3788;DHT22;1909;53.046;8.276;2023-03-17T12:35:44;12.90;99.90
3788;DHT22;1909;53.046;8.276;2023-03-17T12:38:11;13.00;99.90
3788;DHT22;1909;53.046;8.276;2023-03-17T12:40:43;13.30;99.90
3788;DHT22;1909;53.046;8.276;2023-03-17T12:43:18;13.40;99.90
3788;DHT22;1909;53.046;8.276;2023-03-17T12:45:59;13.50;99.90
3788;DHT22;1909;53.046;8.276;2023-03-17T12:48:33;13.40;99.90
3788;DHT22;1909;53.046;8.276;2023-03-17T12:51:09;13.50;99.90
3788;DHT22;1909;53.046;8.276;2023-03-17T12:53:41;13.70;99.90
3788;DHT22;1909;53.046;8.276;2023-03-17T12:56:10;13.70;99.90
3788;DHT22;1909;53.046;8.276;2023-03-17T12:58:37;13.70;99.90
3788;DHT22;1909;53.046;8.276;2023-03-17T13:01:05;14.00;99.90
3788;DHT22;1909;53.046;8.276;2023-03-17T13:03:35;13.90;99.90
3788;DHT22;1909;53.046;8.276;2023-03-17T13:06:04;13.50;99.90
3788;DHT22;1909;53.046;8.276;2023-03-17T13:08:34;13.60;99.90
3788;DHT22;1909;53.046;8.276;2023-03-17T13:11:14;13.80;99.90
3788;DHT22;1909;53.046;8.276;2023-03-17T13:13:43;13.80;99.90
3788;DHT22;1909;53.046;8.276;2023-03-17T13:16:24;13.80;99.90
3788;DHT22;1909;53.046;8.276;2023-03-17T13:19:05;14.00;99.90
3788;DHT22;1909;53.046;8.276;2023-03-17T13:21:31;14.00;99.90
3788;DHT22;1909;53.046;8.276;2023-03-17T13:26:52;13.90;99.90
3788;DHT22;1909;53.046;8.276;2023-03-17T13:29:22;13.80;99.90
3788;DHT22;1909;53.046;8.276;2023-03-17T13:31:49;13.80;99.90
3788;DHT22;1909;53.046;8.276;2023-03-17T13:34:16;13.90;99.90
3788;DHT22;1909;53.046;8.276;2023-03-17T13:36:50;14.10;99.90
3788;DHT22;1909;53.046;8.276;2023-03-17T13:39:29;14.20;99.90
3788;DHT22;1909;53.046;8.276;2023-03-17T13:42:09;14.10;99.90
3788;DHT22;1909;53.046;8.276;2023-03-17T13:44:44;14.20;99.90
3788;DHT22;1909;53.046;8.276;2023-03-17T13:47:19;14.20;99.90
3788;DHT22;1909;53.046;8.276;2023-03-17T13:49:50;14.20;99.90
3788;DHT22;1909;53.046;8.276;2023-03-17T13:52:22;14.30;99.90
3788;DHT22;1909;53.046;8.276;2023-03-17T13:54:56;14.40;99.90
3788;DHT22;1909;53.046;8.276;2023-03-17T13:57:26;14.30;99.90
3788;DHT22;1909;53.046;8.276;2023-03-17T13:59:54;14.20;99.90
3788;DHT22;1909;53.046;8.276;2023-03-17T14:02:22;14.30;99.90
3788;DHT22;1909;53.046;8.276;2023-03-17T14:04:50;14.30;99.90
3788;DHT22;1909;53.046;8.276;2023-03-17T14:07:18;14.30;99.90
3788;DHT22;1909;53.046;8.276;2023-03-17T14:09:45;14.50;99.90
3788;DHT22;1909;53.046;8.276;2023-03-17T14:12:14;14.60;99.90
3788;DHT22;1909;53.046;8.276;2023-03-17T14:14:45;14.70;99.90
3788;DHT22;1909;53.046;8.276;2023-03-17T14:17:14;14.70;99.90
3788;DHT22;1909;53.046;8.276;2023-03-17T14:22:23;14.70;99.90
3788;DHT22;1909;53.046;8.276;2023-03-17T14:24:50;14.80;99.90
3788;DHT22;1909;53.046;8.276;2023-03-17T14:27:17;14.70;99.90
3788;DHT22;1909;53.046;8.276;2023-03-17T14:29:45;14.70;99.90
3788;DHT22;1909;53.046;8.276;2023-03-17T14:32:12;14.70;99.90
3788;DHT22;1909;53.046;8.276;2023-03-17T14:34:43;14.90;99.90
3788;DHT22;1909;53.046;8.276;2023-03-17T14:37:10;14.90;99.90
3788;DHT22;1909;53.046;8.276;2023-03-17T14:39:42;14.90;99.90
3788;DHT22;1909;53.046;8.276;2023-03-17T14:42:09;14.90;99.90
3788;DHT22;1909;53.046;8.276;2023-03-17T14:44:36;15.00;99.90
3788;DHT22;1909;53.046;8.276;2023-03-17T14:47:05;15.00;99.90
3788;DHT22;1909;53.046;8.276;2023-03-17T14:49:32;15.00;99.90
3788;DHT22;1909;53.046;8.276;2023-03-17T14:51:59;14.90;99.90
3788;DHT22;1909;53.046;8.276;2023-03-17T14:54:27;14.90;99.90
3788;DHT22;1909;53.046;8.276;2023-03-17T14:56:56;15.00;99.90
3788;DHT22;1909;53.046;8.276;2023-03-17T14:59:27;15.00;99.90
3788;DHT22;1909;53.046;8.276;2023-03-17T15:01:55;15.10;99.90
3788;DHT22;1909;53.046;8.276;2023-03-17T15:04:24;15.20;99.90
3788;DHT22;1909;53.046;8.276;2023-03-17T15:06:51;15.20;99.90
3788;DHT22;1909;53.046;8.276;2023-03-17T15:09:19;15.20;99.90
3788;DHT22;1909;53.046;8.276;2023-03-17T15:11:52;15.10;99.90
3788;DHT22;1909;53.046;8.276;2023-03-17T15:14:20;15.10;99.90
3788;DHT22;1909;53.046;8.276;2023-03-17T15:16:48;15.20;99.90
3788;DHT22;1909;53.046;8.276;2023-03-17T15:19:17;15.20;99.90
3788;DHT22;1909;53.046;8.276;2023-03-17T15:21:46;15.20;99.90
3788;DHT22;1909;53.046;8.276;2023-03-17T15:24:30;15.20;99.90
3788;DHT22;1909;53.046;8.276;2023-03-17T15:26:59;15.20;99.90
3788;DHT22;1909;53.046;8.276;2023-03-17T15:29:26;15.10;99.90
3788;DHT22;1909;53.046;8.276;2023-03-17T15:31:53;15.10;99.90
3788;DHT22;1909;53.046;8.276;2023-03-17T15:34:20;15.20;99.90
3788;DHT22;1909;53.046;8.276;2023-03-17T15:36:48;15.20;99.90
3788;DHT22;1909;53.046;8.276;2023-03-17T15:39:14;15.30;99.90
3788;DHT22;1909;53.046;8.276;2023-03-17T15:41:41;15.30;99.90
3788;DHT22;1909;53.046;8.276;2023-03-17T15:44:07;15.30;99.90
3788;DHT22;1909;53.046;8.276;2023-03-17T15:46:34;15.20;99.90
3788;DHT22;1909;53.046;8.276;2023-03-17T15:49:01;15.30;99.90
3788;DHT22;1909;53.046;8.276;2023-03-17T15:51:27;15.30;99.90
3788;DHT22;1909;53.046;8.276;2023-03-17T15:53:55;15.40;99.90
3788;DHT22;1909;53.046;8.276;2023-03-17T15:56:22;15.40;99.90
3788;DHT22;1909;53.046;8.276;2023-03-17T15:58:48;15.50;99.90
3788;DHT22;1909;53.046;8.276;2023-03-17T16:01:16;15.40;99.90
3788;DHT22;1909;53.046;8.276;2023-03-17T16:03:43;15.40;99.90
3788;DHT22;1909;53.046;8.276;2023-03-17T16:06:15;15.40;99.90
3788;DHT22;1909;53.046;8.276;2023-03-17T16:08:42;15.40;99.90
3788;DHT22;1909;53.046;8.276;2023-03-17T16:11:17;15.40;99.90
3788;DHT22;1909;53.046;8.276;2023-03-17T16:13:44;15.40;99.90
3788;DHT22;1909;53.046;8.276;2023-03-17T16:16:14;15.30;99.90
3788;DHT22;1909;53.046;8.276;2023-03-17T16:18:41;15.30;99.90
3788;DHT22;1909;53.046;8.276;2023-03-17T16:21:08;15.30;99.90
3788;DHT22;1909;53.046;8.276;2023-03-17T16:23:34;15.30;99.90
3788;DHT22;1909;53.046;8.276;2023-03-17T16:26:01;15.20;99.90
3788;DHT22;1909;53.046;8.276;2023-03-17T16:28:29;15.20;99.90
3788;DHT22;1909;53.046;8.276;2023-03-17T16:30:57;15.20;99.90
3788;DHT22;1909;53.046;8.276;2023-03-17T16:33:24;15.20;99.90
3788;DHT22;1909;53.046;8.276;2023-03-17T16:35:52;15.20;99.90
3788;DHT22;1909;53.046;8.276;2023-03-17T16:38:20;15.10;99.90
3788;DHT22;1909;53.046;8.276;2023-03-17T16:40:48;15.10;99.90
3788;DHT22;1909;53.046;8.276;2023-03-17T16:43:16;15.20;99.90
3788;DHT22;1909;53.046;8.276;2023-03-17T16:45:45;15.10;99.90
3788;DHT22;1909;53.046;8.276;2023-03-17T16:48:15;15.00;99.90
3788;DHT22;1909;53.046;8.276;2023-03-17T16:50:41;14.90;99.90